createdAt,value
2022-10-07T00:00:59.593Z,7.98
2022-10-07T00:03:27.556Z,8.11
2022-10-07T00:06:07.377Z,8.19
2022-10-07T00:08:38.834Z,8.24
2022-10-07T00:11:11.311Z,8.13
2022-10-07T00:13:39.555Z,8.11
2022-10-07T00:16:12.277Z,8.18
2022-10-07T00:18:40.366Z,8.22
2022-10-07T00:21:09.990Z,8.37
2022-10-07T00:23:36.849Z,8.20
2022-10-07T00:26:05.381Z,8.00
2022-10-07T00:28:32.698Z,8.03
2022-10-07T00:31:01.057Z,8.09
2022-10-07T00:33:31.834Z,8.04
2022-10-07T00:35:58.795Z,8.04
2022-10-07T00:38:25.379Z,8.23
2022-10-07T00:40:52.653Z,8.11
2022-10-07T00:43:26.352Z,8.04
2022-10-07T00:45:57.640Z,8.13
2022-10-07T00:48:29.089Z,8.16
2022-10-07T00:50:57.810Z,8.23
2022-10-07T00:53:27.746Z,8.33
2022-10-07T00:55:57.920Z,8.21
2022-10-07T00:58:25.166Z,8.32
2022-10-07T01:00:51.864Z,8.42
2022-10-07T01:03:18.560Z,8.53
2022-10-07T01:05:45.089Z,8.18
2022-10-07T01:08:12.533Z,8.17
2022-10-07T01:11:00.008Z,8.12
2022-10-07T01:13:36.397Z,8.27
2022-10-07T01:16:05.655Z,8.22
2022-10-07T01:18:49.310Z,8.19
2022-10-07T01:21:51.996Z,8.53
2022-10-07T01:24:55.313Z,8.45
2022-10-07T01:27:25.904Z,8.39
2022-10-07T01:29:59.253Z,8.48
2022-10-07T01:32:37.027Z,8.38
2022-10-07T01:35:09.231Z,8.34
2022-10-07T01:37:41.093Z,8.41
2022-10-07T01:40:14.925Z,8.37
2022-10-07T01:42:41.727Z,8.32
2022-10-07T01:45:12.118Z,8.42
2022-10-07T01:47:39.997Z,8.40
2022-10-07T01:50:16.318Z,8.41
2022-10-07T01:53:17.965Z,8.25
2022-10-07T01:56:03.810Z,8.29
2022-10-07T01:58:56.681Z,8.50
2022-10-07T02:01:32.412Z,8.50
2022-10-07T02:04:14.048Z,8.43
2022-10-07T02:06:57.439Z,8.31
2022-10-07T02:09:29.333Z,8.40
2022-10-07T02:12:09.093Z,8.48
2022-10-07T02:15:14.168Z,8.46
2022-10-07T02:17:47.086Z,8.40
2022-10-07T02:20:17.548Z,8.35
2022-10-07T02:22:46.509Z,8.37
2022-10-07T02:25:15.549Z,8.36
2022-10-07T02:27:45.887Z,8.35
2022-10-07T02:30:16.811Z,8.33
2022-10-07T02:32:48.251Z,8.38
2022-10-07T02:35:47.715Z,8.28
2022-10-07T02:38:18.136Z,8.12
2022-10-07T02:40:54.368Z,8.35
2022-10-07T02:43:31.375Z,8.26
2022-10-07T02:46:10.047Z,8.40
2022-10-07T02:48:43.941Z,8.23
2022-10-07T02:51:21.052Z,8.31
2022-10-07T02:53:51.339Z,8.14
2022-10-07T02:56:21.335Z,8.12
2022-10-07T02:58:49.974Z,8.26
2022-10-07T03:01:22.875Z,8.16
2022-10-07T03:03:49.566Z,8.19
2022-10-07T03:06:19.589Z,8.20
2022-10-07T03:08:48.069Z,8.18
2022-10-07T03:11:14.716Z,7.97
2022-10-07T03:13:41.332Z,8.07
2022-10-07T03:16:08.042Z,8.21
2022-10-07T03:18:34.623Z,8.13
2022-10-07T03:21:01.214Z,8.13
2022-10-07T03:23:29.587Z,8.07
2022-10-07T03:25:58.253Z,8.14
2022-10-07T03:28:27.047Z,8.20
2022-10-07T03:30:54.146Z,8.29
2022-10-07T03:33:25.109Z,8.04
2022-10-07T03:35:51.768Z,8.01
2022-10-07T03:38:18.366Z,8.07
2022-10-07T03:40:45.024Z,7.99
2022-10-07T03:43:11.649Z,8.14
2022-10-07T03:45:49.884Z,8.07
2022-10-07T03:48:17.245Z,8.12
2022-10-07T03:50:54.063Z,8.13
2022-10-07T03:53:21.298Z,8.03
2022-10-07T03:55:47.923Z,7.97
2022-10-07T03:58:14.673Z,7.97
2022-10-07T04:00:41.437Z,7.93
2022-10-07T04:03:08.691Z,8.10
2022-10-07T04:05:36.598Z,8.07
2022-10-07T04:08:05.016Z,8.11
2022-10-07T04:10:32.449Z,8.11
2022-10-07T04:12:59.194Z,7.99
2022-10-07T04:15:26.019Z,7.97
2022-10-07T04:17:59.354Z,8.06
2022-10-07T04:20:26.474Z,8.08
2022-10-07T04:22:53.115Z,7.94
2022-10-07T04:25:34.840Z,8.03
2022-10-07T04:28:04.167Z,8.04
2022-10-07T04:30:35.003Z,8.00
2022-10-07T04:33:03.056Z,7.84
2022-10-07T04:35:30.282Z,7.96
2022-10-07T04:37:57.353Z,7.93
2022-10-07T04:40:24.838Z,7.93
2022-10-07T04:43:09.702Z,7.79
2022-10-07T04:45:37.502Z,7.81
2022-10-07T04:48:08.172Z,7.84
2022-10-07T04:50:38.928Z,7.81
2022-10-07T04:53:09.725Z,7.77
2022-10-07T04:55:37.779Z,7.70
2022-10-07T04:58:05.141Z,7.71
2022-10-07T05:00:32.018Z,7.77
2022-10-07T05:02:59.636Z,7.76
2022-10-07T05:05:27.384Z,7.75
2022-10-07T05:07:55.228Z,7.78
2022-10-07T05:10:22.242Z,7.77
2022-10-07T05:12:51.478Z,7.77
2022-10-07T05:15:21.744Z,7.67
2022-10-07T05:17:48.514Z,7.65
2022-10-07T05:20:15.232Z,7.73
2022-10-07T05:22:41.823Z,7.72
2022-10-07T05:25:08.579Z,7.58
2022-10-07T05:27:35.131Z,7.60
2022-10-07T05:30:01.949Z,7.54
2022-10-07T05:32:28.662Z,7.58
2022-10-07T05:34:55.635Z,7.48
2022-10-07T05:37:22.376Z,7.60
2022-10-07T05:39:48.980Z,7.78
2022-10-07T05:42:15.808Z,7.69
2022-10-07T05:44:42.778Z,7.62
2022-10-07T05:47:09.422Z,7.66
2022-10-07T05:49:36.375Z,7.50
2022-10-07T05:52:03.610Z,7.50
2022-10-07T05:54:30.408Z,7.51
2022-10-07T05:56:57.236Z,7.65
2022-10-07T05:59:23.854Z,7.65
2022-10-07T06:01:50.749Z,7.73
2022-10-07T06:04:19.336Z,7.73
2022-10-07T06:06:46.447Z,7.53
2022-10-07T06:09:32.089Z,7.64
2022-10-07T06:12:17.200Z,7.78
2022-10-07T06:14:43.754Z,7.89
2022-10-07T06:17:10.342Z,7.84
2022-10-07T06:19:37.868Z,7.90
2022-10-07T06:22:04.874Z,7.93
2022-10-07T06:24:34.008Z,7.92
2022-10-07T06:27:00.710Z,7.85
2022-10-07T06:29:27.255Z,7.86
2022-10-07T06:31:53.812Z,8.07
2022-10-07T06:34:20.351Z,8.14
2022-10-07T06:36:47.116Z,8.34
2022-10-07T06:39:13.800Z,8.47
2022-10-07T06:41:40.716Z,8.57
2022-10-07T06:44:07.407Z,8.71
2022-10-07T06:46:34.025Z,8.96
2022-10-07T06:49:00.600Z,8.95
2022-10-07T06:51:27.328Z,8.83
2022-10-07T06:53:58.103Z,9.08
2022-10-07T06:56:24.786Z,9.04
2022-10-07T06:58:51.359Z,9.01
2022-10-07T07:01:18.413Z,9.01
2022-10-07T07:03:45.073Z,8.97
2022-10-07T07:06:12.039Z,8.94
2022-10-07T07:08:41.257Z,9.06
2022-10-07T07:11:32.059Z,9.09
2022-10-07T07:13:59.147Z,9.09
2022-10-07T07:16:26.046Z,9.15
2022-10-07T07:18:58.011Z,9.23
2022-10-07T07:21:32.618Z,9.37
2022-10-07T07:24:00.032Z,9.38
2022-10-07T07:26:28.306Z,9.56
2022-10-07T07:29:05.175Z,9.69
2022-10-07T07:31:34.175Z,9.82
2022-10-07T07:34:03.115Z,9.96
2022-10-07T07:36:31.824Z,10.08
2022-10-07T07:39:01.899Z,10.25
2022-10-07T07:41:34.902Z,10.50
2022-10-07T07:44:04.008Z,10.64
2022-10-07T07:46:37.228Z,10.71
2022-10-07T07:49:04.994Z,11.08
2022-10-07T07:51:33.025Z,11.08
2022-10-07T07:53:59.946Z,11.22
2022-10-07T07:56:29.234Z,11.40
2022-10-07T07:58:56.639Z,11.46
2022-10-07T08:01:23.420Z,11.42
2022-10-07T08:03:50.663Z,11.61
2022-10-07T08:06:21.143Z,11.82
2022-10-07T08:08:48.071Z,11.82
2022-10-07T08:11:18.288Z,11.81
2022-10-07T08:13:45.700Z,11.83
2022-10-07T08:16:16.973Z,11.85
2022-10-07T08:18:46.282Z,11.67
2022-10-07T08:21:13.913Z,11.70
2022-10-07T08:23:41.111Z,11.74
2022-10-07T08:26:10.088Z,11.74
2022-10-07T08:28:37.726Z,11.91
2022-10-07T08:31:11.429Z,11.83
2022-10-07T08:33:41.725Z,12.06
2022-10-07T08:36:12.510Z,12.25
2022-10-07T08:38:40.355Z,12.39
2022-10-07T08:41:06.881Z,12.40
2022-10-07T08:43:34.181Z,12.59
2022-10-07T08:46:02.084Z,12.81
2022-10-07T08:48:34.927Z,12.75
2022-10-07T08:51:21.171Z,12.79
2022-10-07T08:53:54.796Z,12.76
2022-10-07T08:56:24.994Z,12.73
2022-10-07T08:59:03.501Z,12.86
2022-10-07T09:02:00.709Z,12.98
2022-10-07T09:04:27.234Z,13.11
2022-10-07T09:07:00.718Z,13.26
2022-10-07T09:09:53.806Z,13.43
2022-10-07T09:12:35.160Z,13.53
2022-10-07T09:15:03.615Z,13.62
2022-10-07T09:17:35.422Z,13.33
2022-10-07T09:20:17.672Z,13.48
2022-10-07T09:22:57.443Z,13.67
2022-10-07T09:25:26.750Z,13.64
2022-10-07T09:27:54.588Z,13.79
2022-10-07T09:30:22.990Z,13.73
2022-10-07T09:32:54.425Z,13.87
2022-10-07T09:35:24.451Z,14.24
2022-10-07T09:38:04.175Z,14.42
2022-10-07T09:40:34.897Z,14.34
2022-10-07T09:43:09.708Z,14.57
2022-10-07T09:45:37.759Z,14.55
2022-10-07T09:48:20.911Z,14.67
2022-10-07T09:50:48.181Z,14.59
2022-10-07T09:53:26.028Z,14.41
2022-10-07T09:55:54.407Z,14.40
2022-10-07T09:58:30.852Z,14.62
2022-10-07T10:00:59.792Z,14.73
2022-10-07T10:03:35.595Z,15.06
2022-10-07T10:06:07.809Z,15.06
2022-10-07T10:08:37.686Z,15.32
2022-10-07T10:11:07.282Z,15.38
2022-10-07T10:13:40.786Z,15.50
2022-10-07T10:16:27.856Z,15.19
2022-10-07T10:19:03.571Z,15.32
2022-10-07T10:21:35.797Z,15.48
2022-10-07T10:24:16.184Z,15.50
2022-10-07T10:27:06.619Z,15.59
2022-10-07T10:29:38.850Z,15.70
2022-10-07T10:32:20.344Z,15.78
2022-10-07T10:35:15.957Z,15.82
2022-10-07T10:38:11.437Z,15.89
2022-10-07T10:40:48.195Z,15.97
2022-10-07T10:43:24.969Z,15.93
2022-10-07T10:46:20.837Z,15.79
2022-10-07T10:48:59.723Z,15.89
2022-10-07T10:51:38.575Z,16.14
2022-10-07T10:54:05.058Z,15.91
2022-10-07T10:56:48.315Z,15.86
2022-10-07T10:59:37.636Z,16.06
2022-10-07T11:02:17.590Z,16.10
2022-10-07T11:04:52.799Z,16.05
2022-10-07T11:07:32.868Z,16.13
2022-10-07T11:10:18.270Z,16.09
2022-10-07T11:12:49.412Z,16.05
2022-10-07T11:15:22.185Z,16.03
2022-10-07T11:17:51.404Z,16.05
2022-10-07T11:20:27.725Z,16.10
2022-10-07T11:23:02.642Z,16.04
2022-10-07T11:25:44.364Z,15.72
2022-10-07T11:28:19.742Z,15.58
2022-10-07T11:31:07.916Z,15.99
2022-10-07T11:33:40.429Z,16.15
2022-10-07T11:36:16.387Z,16.33
2022-10-07T11:38:43.963Z,16.23
2022-10-07T11:41:21.011Z,16.37
2022-10-07T11:43:57.206Z,16.57
2022-10-07T11:46:34.055Z,16.40
2022-10-07T11:49:06.894Z,16.51
2022-10-07T11:51:57.831Z,16.47
2022-10-07T11:54:27.690Z,16.42
2022-10-07T11:56:57.726Z,16.37
2022-10-07T11:59:48.195Z,16.32
2022-10-07T12:02:30.217Z,16.32
2022-10-07T12:05:01.970Z,16.20
2022-10-07T12:07:45.068Z,16.11
2022-10-07T12:10:47.152Z,16.35
2022-10-07T12:13:13.600Z,16.28
2022-10-07T12:15:45.071Z,16.27
2022-10-07T12:18:11.568Z,16.37
2022-10-07T12:20:53.089Z,16.48
2022-10-07T12:23:22.473Z,16.50
2022-10-07T12:25:51.858Z,16.51
2022-10-07T12:28:26.632Z,16.32
2022-10-07T12:30:55.863Z,16.47
2022-10-07T12:33:54.458Z,16.49
2022-10-07T12:36:27.830Z,16.54
2022-10-07T12:38:57.693Z,16.73
2022-10-07T12:41:39.714Z,16.59
2022-10-07T12:44:33.560Z,16.50
2022-10-07T12:47:10.641Z,16.65
2022-10-07T12:49:48.979Z,16.68
2022-10-07T12:52:19.407Z,16.59
2022-10-07T12:55:02.366Z,16.43
2022-10-07T12:57:47.623Z,16.47
2022-10-07T13:00:24.678Z,16.61
2022-10-07T13:03:19.022Z,16.54
2022-10-07T13:06:17.815Z,16.49
2022-10-07T13:08:56.457Z,16.40
2022-10-07T13:12:03.790Z,16.38
2022-10-07T13:14:39.169Z,16.33
2022-10-07T13:17:44.359Z,16.32
2022-10-07T13:20:22.822Z,16.09
2022-10-07T13:22:49.794Z,16.22
2022-10-07T13:25:21.929Z,16.36
2022-10-07T13:28:00.235Z,16.44
2022-10-07T13:30:37.946Z,16.37
2022-10-07T13:33:31.355Z,16.60
2022-10-07T13:36:19.236Z,16.58
2022-10-07T13:38:47.823Z,16.53
2022-10-07T13:41:34.551Z,16.45
2022-10-07T13:44:04.751Z,16.48
2022-10-07T13:46:33.748Z,16.62
2022-10-07T13:49:01.132Z,16.50
2022-10-07T13:51:32.836Z,16.49
2022-10-07T13:54:02.807Z,16.39
2022-10-07T13:56:36.018Z,16.17
2022-10-07T13:59:03.474Z,16.25
2022-10-07T14:01:32.362Z,16.19
2022-10-07T14:04:20.321Z,15.97
2022-10-07T14:07:00.439Z,16.06
2022-10-07T14:09:36.872Z,16.24
2022-10-07T14:12:35.435Z,16.24
2022-10-07T14:15:16.163Z,16.07
2022-10-07T14:17:51.077Z,16.26
2022-10-07T14:20:23.887Z,16.29
2022-10-07T14:22:53.593Z,16.07
2022-10-07T14:25:29.108Z,16.17
2022-10-07T14:28:05.660Z,15.99
2022-10-07T14:30:57.738Z,16.04
2022-10-07T14:33:48.353Z,16.18
2022-10-07T14:36:21.096Z,15.91
2022-10-07T14:38:49.963Z,16.01
2022-10-07T14:41:20.720Z,16.04
2022-10-07T14:43:50.027Z,16.05
2022-10-07T14:46:21.137Z,16.02
2022-10-07T14:48:49.238Z,15.95
2022-10-07T14:51:20.184Z,16.10
2022-10-07T14:53:50.301Z,15.90
2022-10-07T14:56:24.753Z,16.00
2022-10-07T14:58:51.504Z,15.92
2022-10-07T15:01:19.015Z,15.98
2022-10-07T15:03:48.738Z,15.92
2022-10-07T15:06:16.876Z,15.85
2022-10-07T15:08:44.555Z,15.93
2022-10-07T15:11:15.742Z,15.79
2022-10-07T15:13:49.644Z,15.88
2022-10-07T15:16:21.620Z,16.02
2022-10-07T15:18:52.379Z,16.06
2022-10-07T15:21:21.780Z,15.89
2022-10-07T15:23:55.114Z,15.87
2022-10-07T15:26:24.647Z,15.76
2022-10-07T15:28:55.333Z,15.67
2022-10-07T15:31:24.847Z,15.61
2022-10-07T15:33:51.747Z,15.65
2022-10-07T15:36:18.320Z,15.48
2022-10-07T15:38:45.162Z,15.58
2022-10-07T15:41:36.076Z,15.40
2022-10-07T15:44:05.961Z,15.32
2022-10-07T15:46:33.004Z,15.39
2022-10-07T15:49:00.515Z,15.26
2022-10-07T15:51:28.007Z,15.29
2022-10-07T15:53:54.634Z,15.44
2022-10-07T15:56:21.340Z,15.51
2022-10-07T15:58:47.928Z,15.47
2022-10-07T16:01:15.426Z,15.49
2022-10-07T16:03:44.641Z,15.34
2022-10-07T16:06:16.068Z,15.31
2022-10-07T16:08:43.192Z,15.36
2022-10-07T16:11:12.118Z,15.26
2022-10-07T16:13:43.811Z,15.25
2022-10-07T16:16:12.976Z,15.11
2022-10-07T16:18:41.866Z,15.10
2022-10-07T16:21:12.025Z,15.08
2022-10-07T16:23:41.195Z,15.06
2022-10-07T16:26:15.385Z,14.92
2022-10-07T16:29:04.009Z,14.78
2022-10-07T16:31:32.595Z,14.84
2022-10-07T16:33:59.289Z,14.73
2022-10-07T16:36:26.458Z,14.79
2022-10-07T16:38:54.252Z,14.72
2022-10-07T16:41:21.574Z,14.79
2022-10-07T16:43:48.112Z,14.88
2022-10-07T16:46:20.475Z,14.76
2022-10-07T16:48:48.705Z,14.85
2022-10-07T16:51:23.615Z,14.69
2022-10-07T16:53:54.590Z,14.71
2022-10-07T16:56:22.337Z,14.61
2022-10-07T16:58:58.004Z,14.51
2022-10-07T17:01:25.754Z,14.48
2022-10-07T17:03:53.450Z,14.55
2022-10-07T17:06:21.747Z,14.43
2022-10-07T17:08:49.097Z,14.41
2022-10-07T17:11:30.842Z,14.34
2022-10-07T17:14:18.446Z,14.31
2022-10-07T17:16:47.865Z,14.40
2022-10-07T17:19:22.161Z,14.33
2022-10-07T17:21:50.348Z,14.19
2022-10-07T17:24:18.818Z,14.17
2022-10-07T17:26:46.249Z,14.23
2022-10-07T17:29:15.283Z,14.30
2022-10-07T17:31:43.494Z,14.18
2022-10-07T17:34:11.463Z,14.14
2022-10-07T17:36:39.318Z,14.18
2022-10-07T17:39:06.069Z,14.04
2022-10-07T17:41:34.924Z,13.89
2022-10-07T17:44:04.538Z,13.94
2022-10-07T17:46:33.326Z,14.02
2022-10-07T17:49:02.192Z,14.04
2022-10-07T17:51:31.507Z,14.02
2022-10-07T17:54:02.439Z,13.93
2022-10-07T17:56:32.017Z,13.81
2022-10-07T17:58:59.573Z,14.05
2022-10-07T18:01:33.895Z,13.89
2022-10-07T18:04:05.927Z,14.05
2022-10-07T18:06:35.385Z,14.04
2022-10-07T18:09:05.254Z,13.96
2022-10-07T18:11:51.249Z,14.00
2022-10-07T18:14:37.189Z,13.91
2022-10-07T18:17:04.396Z,13.76
2022-10-07T18:19:31.083Z,13.67
2022-10-07T18:21:57.996Z,13.67
2022-10-07T18:24:28.171Z,13.75
2022-10-07T18:26:59.470Z,13.62
2022-10-07T18:29:32.237Z,13.61
2022-10-07T18:31:59.858Z,13.63
2022-10-07T18:34:26.434Z,13.77
2022-10-07T18:36:56.542Z,13.61
2022-10-07T18:39:25.203Z,13.54
2022-10-07T18:41:51.976Z,13.53
2022-10-07T18:44:19.058Z,13.48
2022-10-07T18:46:45.706Z,13.60
2022-10-07T18:49:15.454Z,13.65
2022-10-07T18:51:42.381Z,13.59
2022-10-07T18:54:10.095Z,13.75
2022-10-07T18:56:40.817Z,13.71
2022-10-07T18:59:08.728Z,13.64
2022-10-07T19:01:35.469Z,13.59
2022-10-07T19:04:03.716Z,13.56
2022-10-07T19:06:33.746Z,13.24
2022-10-07T19:09:02.700Z,13.44
2022-10-07T19:11:30.693Z,13.41
2022-10-07T19:13:59.587Z,13.44
2022-10-07T19:16:34.777Z,13.37
2022-10-07T19:19:07.105Z,13.29
2022-10-07T19:21:34.588Z,13.36
2022-10-07T19:24:02.212Z,13.24
2022-10-07T19:26:38.221Z,13.26
2022-10-07T19:29:06.973Z,13.26
2022-10-07T19:31:36.366Z,13.06
2022-10-07T19:34:05.999Z,12.99
2022-10-07T19:36:36.352Z,13.02
2022-10-07T19:39:04.505Z,13.10
2022-10-07T19:41:32.683Z,13.04
2022-10-07T19:43:59.956Z,13.02
2022-10-07T19:46:29.097Z,12.94
2022-10-07T19:48:58.386Z,12.83
2022-10-07T19:51:27.339Z,13.03
2022-10-07T19:53:57.380Z,12.93
2022-10-07T19:56:32.244Z,12.99
2022-10-07T19:59:01.112Z,12.73
2022-10-07T20:01:32.435Z,12.61
2022-10-07T20:04:07.398Z,12.76
2022-10-07T20:06:38.818Z,12.77
2022-10-07T20:09:08.009Z,12.75
2022-10-07T20:11:35.048Z,12.65
2022-10-07T20:14:03.087Z,12.66
2022-10-07T20:16:31.208Z,12.56
2022-10-07T20:19:00.706Z,12.46
2022-10-07T20:21:28.422Z,12.30
2022-10-07T20:23:55.670Z,12.43
2022-10-07T20:26:30.454Z,12.21
2022-10-07T20:28:59.333Z,12.30
2022-10-07T20:31:28.869Z,12.25
2022-10-07T20:33:57.075Z,12.19
2022-10-07T20:36:28.154Z,12.24
2022-10-07T20:39:28.352Z,12.28
2022-10-07T20:42:13.621Z,12.21
2022-10-07T20:44:40.479Z,12.12
2022-10-07T20:47:09.252Z,12.15
2022-10-07T20:49:38.739Z,12.14
2022-10-07T20:52:07.936Z,12.12
2022-10-07T20:54:34.556Z,11.95
2022-10-07T20:57:01.210Z,11.98
2022-10-07T20:59:30.183Z,11.84
2022-10-07T21:01:57.641Z,11.74
2022-10-07T21:04:28.420Z,11.70
2022-10-07T21:06:58.023Z,11.62
2022-10-07T21:09:26.086Z,11.64
2022-10-07T21:11:53.300Z,11.78
2022-10-07T21:14:20.636Z,11.75
2022-10-07T21:16:47.863Z,11.76
2022-10-07T21:19:15.678Z,11.72
2022-10-07T21:21:42.380Z,11.58
2022-10-07T21:24:08.967Z,11.45
2022-10-07T21:26:36.510Z,11.51
2022-10-07T21:29:04.255Z,11.56
2022-10-07T21:31:31.471Z,11.62
2022-10-07T21:34:01.672Z,11.49
2022-10-07T21:36:28.496Z,11.61
2022-10-07T21:38:58.711Z,11.47
2022-10-07T21:41:38.818Z,11.48
2022-10-07T21:44:08.244Z,11.60
2022-10-07T21:46:36.717Z,11.50
2022-10-07T21:49:05.581Z,11.41
2022-10-07T21:51:32.443Z,11.51
2022-10-07T21:53:58.989Z,11.49
2022-10-07T21:56:28.261Z,11.21
2022-10-07T21:58:55.139Z,10.97
2022-10-07T22:01:24.042Z,11.27
2022-10-07T22:03:59.321Z,11.34
2022-10-07T22:06:45.704Z,11.22
2022-10-07T22:09:14.015Z,11.02
2022-10-07T22:11:40.677Z,11.13
2022-10-07T22:14:12.284Z,11.06
2022-10-07T22:16:40.048Z,11.02
2022-10-07T22:19:06.754Z,10.84
2022-10-07T22:21:35.936Z,10.76
2022-10-07T22:24:05.165Z,10.94
2022-10-07T22:26:38.091Z,10.78
2022-10-07T22:29:07.432Z,10.63
2022-10-07T22:31:34.285Z,10.61
2022-10-07T22:34:01.698Z,10.71
2022-10-07T22:36:29.582Z,10.79
2022-10-07T22:38:59.319Z,10.81
2022-10-07T22:41:26.623Z,10.90
2022-10-07T22:43:53.817Z,10.91
2022-10-07T22:46:26.377Z,10.75
2022-10-07T22:48:58.324Z,10.76
2022-10-07T22:51:29.121Z,10.82
2022-10-07T22:53:56.670Z,10.68
2022-10-07T22:56:25.223Z,10.66
2022-10-07T22:58:56.800Z,10.86
2022-10-07T23:01:23.704Z,10.60
2022-10-07T23:03:52.451Z,10.56
2022-10-07T23:06:19.907Z,10.74
2022-10-07T23:08:48.514Z,10.47
2022-10-07T23:11:22.298Z,10.59
2022-10-07T23:13:49.698Z,10.44
2022-10-07T23:16:18.709Z,10.55
2022-10-07T23:18:46.794Z,10.58
2022-10-07T23:21:14.713Z,10.76
2022-10-07T23:23:44.032Z,10.80
2022-10-07T23:26:18.807Z,10.84
2022-10-07T23:28:46.922Z,10.79
2022-10-07T23:31:15.922Z,10.93
2022-10-07T23:33:42.918Z,10.87
2022-10-07T23:36:10.675Z,10.90
2022-10-07T23:38:48.076Z,10.88
2022-10-07T23:41:20.228Z,10.96
2022-10-07T23:43:51.056Z,10.89
2022-10-07T23:46:18.899Z,10.79
2022-10-07T23:48:45.660Z,10.89
2022-10-07T23:51:15.276Z,10.71
2022-10-07T23:53:42.049Z,10.76
2022-10-07T23:56:09.119Z,10.71
2022-10-07T23:58:36.502Z,10.80
